Terminal Aerodrome Forecast
Issued by NWS Sterling, VA

Current Version | Previous Version | Text Only | Print | Product List | Glossary On
Versions: 1 2 3 4 5 6 7 8 9 10 11 12 13 14 15 16 17
000
FTUS41 KLWX 042335
TAFMRB
TAF
KMRB 042335Z 0500/0524 01006KT 2SM -RA BR SCT009 OVC012
     FM050200 32006KT 2SM -RAPL BR OVC009
     FM050600 34008KT 3/4SM -SN OVC006
     FM051800 34010G15KT 2SM -SN OVC010=

USA.gov is the U.S. government's official web portal to all federal, state and local government web resources and services.